sensor_id;sensor_type;location;lat;lon;timestamp;P1;durP1;ratioP1;P2;durP2;ratioP2
37545;SDS011;23389;52.484;13.572;2023-04-03T00:01:22;6.43;;;1.20;;
37545;SDS011;23389;52.484;13.572;2023-04-03T00:03:47;7.00;;;1.50;;
37545;SDS011;23389;52.484;13.572;2023-04-03T00:06:12;5.63;;;1.40;;
37545;SDS011;23389;52.484;13.572;2023-04-03T00:08:38;6.93;;;1.55;;
37545;SDS011;23389;52.484;13.572;2023-04-03T00:11:04;4.07;;;1.10;;
37545;SDS011;23389;52.484;13.572;2023-04-03T00:13:29;6.40;;;1.60;;
37545;SDS011;23389;52.484;13.572;2023-04-03T00:15:54;4.97;;;1.50;;
37545;SDS011;23389;52.484;13.572;2023-04-03T00:18:19;7.17;;;1.40;;
37545;SDS011;23389;52.484;13.572;2023-04-03T00:20:44;8.90;;;1.70;;
37545;SDS011;23389;52.484;13.572;2023-04-03T00:23:10;6.40;;;1.20;;
37545;SDS011;23389;52.484;13.572;2023-04-03T00:25:35;9.50;;;1.92;;
37545;SDS011;23389;52.484;13.572;2023-04-03T00:28:01;4.63;;;1.25;;
37545;SDS011;23389;52.484;13.572;2023-04-03T00:30:26;7.63;;;1.38;;
37545;SDS011;23389;52.484;13.572;2023-04-03T00:32:51;7.65;;;1.60;;
37545;SDS011;23389;52.484;13.572;2023-04-03T00:35:17;6.47;;;1.30;;
37545;SDS011;23389;52.484;13.572;2023-04-03T00:37:43;6.82;;;1.23;;
37545;SDS011;23389;52.484;13.572;2023-04-03T00:40:08;8.07;;;1.85;;
37545;SDS011;23389;52.484;13.572;2023-04-03T00:42:35;8.25;;;1.20;;
37545;SDS011;23389;52.484;13.572;2023-04-03T00:47:26;9.23;;;1.40;;
37545;SDS011;23389;52.484;13.572;2023-04-03T00:49:51;5.30;;;1.55;;
37545;SDS011;23389;52.484;13.572;2023-04-03T00:52:17;10.82;;;2.10;;
37545;SDS011;23389;52.484;13.572;2023-04-03T00:54:44;6.07;;;1.40;;
37545;SDS011;23389;52.484;13.572;2023-04-03T00:57:10;5.97;;;1.33;;
37545;SDS011;23389;52.484;13.572;2023-04-03T00:59:38;5.35;;;1.15;;
37545;SDS011;23389;52.484;13.572;2023-04-03T01:04:32;5.03;;;1.48;;
37545;SDS011;23389;52.484;13.572;2023-04-03T01:06:59;4.15;;;0.90;;
37545;SDS011;23389;52.484;13.572;2023-04-03T01:09:25;6.88;;;1.63;;
37545;SDS011;23389;52.484;13.572;2023-04-03T01:11:51;5.05;;;1.35;;
37545;SDS011;23389;52.484;13.572;2023-04-03T01:14:16;5.70;;;1.38;;
37545;SDS011;23389;52.484;13.572;2023-04-03T01:16:41;4.82;;;1.00;;
37545;SDS011;23389;52.484;13.572;2023-04-03T01:19:07;7.20;;;1.27;;
37545;SDS011;23389;52.484;13.572;2023-04-03T01:21:39;5.38;;;1.58;;
37545;SDS011;23389;52.484;13.572;2023-04-03T01:26:31;6.67;;;1.83;;
37545;SDS011;23389;52.484;13.572;2023-04-03T01:28:58;8.55;;;1.50;;
37545;SDS011;23389;52.484;13.572;2023-04-03T01:31:43;7.75;;;1.70;;
37545;SDS011;23389;52.484;13.572;2023-04-03T01:34:08;6.97;;;1.58;;
37545;SDS011;23389;52.484;13.572;2023-04-03T01:36:33;7.30;;;1.40;;
37545;SDS011;23389;52.484;13.572;2023-04-03T01:38:59;4.00;;;1.10;;
37545;SDS011;23389;52.484;13.572;2023-04-03T01:41:24;5.70;;;1.30;;
37545;SDS011;23389;52.484;13.572;2023-04-03T01:43:50;4.55;;;1.25;;
37545;SDS011;23389;52.484;13.572;2023-04-03T01:46:16;8.15;;;1.45;;
37545;SDS011;23389;52.484;13.572;2023-04-03T01:48:41;12.52;;;2.05;;
37545;SDS011;23389;52.484;13.572;2023-04-03T01:51:06;7.07;;;1.30;;
37545;SDS011;23389;52.484;13.572;2023-04-03T01:53:31;5.60;;;1.13;;
37545;SDS011;23389;52.484;13.572;2023-04-03T01:55:56;9.15;;;1.35;;
37545;SDS011;23389;52.484;13.572;2023-04-03T01:58:22;8.20;;;1.48;;
37545;SDS011;23389;52.484;13.572;2023-04-03T02:00:47;7.53;;;1.80;;
37545;SDS011;23389;52.484;13.572;2023-04-03T02:03:13;7.15;;;1.33;;
37545;SDS011;23389;52.484;13.572;2023-04-03T02:05:38;8.40;;;1.40;;
37545;SDS011;23389;52.484;13.572;2023-04-03T02:08:03;4.65;;;1.42;;
37545;SDS011;23389;52.484;13.572;2023-04-03T02:10:28;6.35;;;1.27;;
37545;SDS011;23389;52.484;13.572;2023-04-03T02:12:53;8.25;;;1.40;;
37545;SDS011;23389;52.484;13.572;2023-04-03T02:15:19;6.82;;;1.48;;
37545;SDS011;23389;52.484;13.572;2023-04-03T02:17:44;8.23;;;1.58;;
37545;SDS011;23389;52.484;13.572;2023-04-03T02:20:09;5.72;;;1.33;;
37545;SDS011;23389;52.484;13.572;2023-04-03T02:22:35;10.40;;;1.80;;
37545;SDS011;23389;52.484;13.572;2023-04-03T02:25:00;9.52;;;1.58;;
37545;SDS011;23389;52.484;13.572;2023-04-03T02:27:26;4.35;;;1.25;;
37545;SDS011;23389;52.484;13.572;2023-04-03T02:29:51;8.10;;;1.33;;
37545;SDS011;23389;52.484;13.572;2023-04-03T02:32:16;7.60;;;1.88;;
37545;SDS011;23389;52.484;13.572;2023-04-03T02:34:41;7.25;;;1.50;;
37545;SDS011;23389;52.484;13.572;2023-04-03T02:37:06;6.70;;;1.85;;
37545;SDS011;23389;52.484;13.572;2023-04-03T02:39:31;8.80;;;1.42;;
37545;SDS011;23389;52.484;13.572;2023-04-03T02:41:56;8.27;;;1.92;;
37545;SDS011;23389;52.484;13.572;2023-04-03T02:44:21;7.95;;;1.48;;
37545;SDS011;23389;52.484;13.572;2023-04-03T02:46:48;7.28;;;1.52;;
37545;SDS011;23389;52.484;13.572;2023-04-03T02:49:13;7.78;;;1.60;;
37545;SDS011;23389;52.484;13.572;2023-04-03T02:51:38;8.32;;;1.58;;
37545;SDS011;23389;52.484;13.572;2023-04-03T02:54:03;8.02;;;1.80;;
37545;SDS011;23389;52.484;13.572;2023-04-03T02:56:28;6.97;;;1.83;;
37545;SDS011;23389;52.484;13.572;2023-04-03T02:58:53;7.95;;;1.48;;
37545;SDS011;23389;52.484;13.572;2023-04-03T03:01:19;7.40;;;1.63;;
37545;SDS011;23389;52.484;13.572;2023-04-03T03:03:44;6.90;;;1.60;;
37545;SDS011;23389;52.484;13.572;2023-04-03T03:06:10;9.20;;;2.08;;
37545;SDS011;23389;52.484;13.572;2023-04-03T03:08:36;8.57;;;1.45;;
37545;SDS011;23389;52.484;13.572;2023-04-03T03:11:01;4.00;;;1.15;;
37545;SDS011;23389;52.484;13.572;2023-04-03T03:13:27;8.07;;;1.90;;
37545;SDS011;23389;52.484;13.572;2023-04-03T03:15:52;6.88;;;1.42;;
37545;SDS011;23389;52.484;13.572;2023-04-03T03:18:17;6.15;;;1.85;;
37545;SDS011;23389;52.484;13.572;2023-04-03T03:20:42;7.68;;;1.75;;
37545;SDS011;23389;52.484;13.572;2023-04-03T03:23:08;7.57;;;1.55;;
37545;SDS011;23389;52.484;13.572;2023-04-03T03:25:33;9.32;;;1.90;;
37545;SDS011;23389;52.484;13.572;2023-04-03T03:27:58;5.45;;;1.50;;
37545;SDS011;23389;52.484;13.572;2023-04-03T03:30:23;6.80;;;1.52;;
37545;SDS011;23389;52.484;13.572;2023-04-03T03:32:49;8.80;;;2.10;;
37545;SDS011;23389;52.484;13.572;2023-04-03T03:35:14;5.63;;;1.60;;
37545;SDS011;23389;52.484;13.572;2023-04-03T03:37:39;4.80;;;1.40;;
37545;SDS011;23389;52.484;13.572;2023-04-03T03:40:04;6.55;;;1.70;;
37545;SDS011;23389;52.484;13.572;2023-04-03T03:42:30;12.35;;;2.03;;
37545;SDS011;23389;52.484;13.572;2023-04-03T03:44:55;6.65;;;1.77;;
37545;SDS011;23389;52.484;13.572;2023-04-03T03:47:20;7.97;;;1.80;;
37545;SDS011;23389;52.484;13.572;2023-04-03T03:49:45;7.78;;;1.65;;
37545;SDS011;23389;52.484;13.572;2023-04-03T03:52:10;8.20;;;2.17;;
37545;SDS011;23389;52.484;13.572;2023-04-03T03:54:36;5.10;;;1.73;;
37545;SDS011;23389;52.484;13.572;2023-04-03T03:57:01;9.18;;;1.58;;
37545;SDS011;23389;52.484;13.572;2023-04-03T03:59:26;9.52;;;1.75;;
37545;SDS011;23389;52.484;13.572;2023-04-03T04:01:51;6.78;;;1.70;;
37545;SDS011;23389;52.484;13.572;2023-04-03T04:04:16;11.17;;;2.03;;
37545;SDS011;23389;52.484;13.572;2023-04-03T04:06:41;7.90;;;2.13;;
37545;SDS011;23389;52.484;13.572;2023-04-03T04:09:08;5.80;;;2.38;;
37545;SDS011;23389;52.484;13.572;2023-04-03T04:11:33;10.05;;;3.50;;
37545;SDS011;23389;52.484;13.572;2023-04-03T04:13:58;7.83;;;3.27;;
37545;SDS011;23389;52.484;13.572;2023-04-03T04:16:23;14.60;;;3.60;;
37545;SDS011;23389;52.484;13.572;2023-04-03T04:18:48;12.43;;;4.50;;
37545;SDS011;23389;52.484;13.572;2023-04-03T04:21:13;9.88;;;4.63;;
37545;SDS011;23389;52.484;13.572;2023-04-03T04:23:39;11.38;;;4.03;;
37545;SDS011;23389;52.484;13.572;2023-04-03T04:26:04;8.18;;;4.57;;
37545;SDS011;23389;52.484;13.572;2023-04-03T04:28:29;7.67;;;3.67;;
37545;SDS011;23389;52.484;13.572;2023-04-03T04:30:54;11.05;;;3.13;;
37545;SDS011;23389;52.484;13.572;2023-04-03T04:33:19;10.37;;;2.70;;
37545;SDS011;23389;52.484;13.572;2023-04-03T04:35:46;14.18;;;3.30;;
37545;SDS011;23389;52.484;13.572;2023-04-03T04:38:11;12.25;;;3.65;;
37545;SDS011;23389;52.484;13.572;2023-04-03T04:40:36;11.15;;;3.45;;
37545;SDS011;23389;52.484;13.572;2023-04-03T04:43:02;9.85;;;3.55;;
37545;SDS011;23389;52.484;13.572;2023-04-03T04:45:27;9.75;;;3.42;;
37545;SDS011;23389;52.484;13.572;2023-04-03T04:47:54;8.73;;;3.50;;
37545;SDS011;23389;52.484;13.572;2023-04-03T04:50:20;10.38;;;3.35;;
37545;SDS011;23389;52.484;13.572;2023-04-03T04:52:45;9.80;;;3.27;;
37545;SDS011;23389;52.484;13.572;2023-04-03T04:55:10;14.70;;;4.03;;
37545;SDS011;23389;52.484;13.572;2023-04-03T04:57:35;8.37;;;2.90;;
37545;SDS011;23389;52.484;13.572;2023-04-03T05:00:01;11.82;;;3.15;;
37545;SDS011;23389;52.484;13.572;2023-04-03T05:02:27;13.02;;;4.38;;
37545;SDS011;23389;52.484;13.572;2023-04-03T05:04:52;14.55;;;4.88;;
37545;SDS011;23389;52.484;13.572;2023-04-03T05:07:18;12.65;;;5.05;;
37545;SDS011;23389;52.484;13.572;2023-04-03T05:09:43;12.67;;;4.60;;
37545;SDS011;23389;52.484;13.572;2023-04-03T05:12:08;10.50;;;4.20;;
37545;SDS011;23389;52.484;13.572;2023-04-03T05:14:33;11.07;;;3.53;;
37545;SDS011;23389;52.484;13.572;2023-04-03T05:16:58;10.20;;;2.75;;
37545;SDS011;23389;52.484;13.572;2023-04-03T05:19:23;7.35;;;2.85;;
37545;SDS011;23389;52.484;13.572;2023-04-03T05:21:48;8.00;;;2.55;;
37545;SDS011;23389;52.484;13.572;2023-04-03T05:24:14;8.43;;;2.17;;
37545;SDS011;23389;52.484;13.572;2023-04-03T05:26:39;9.68;;;2.22;;
37545;SDS011;23389;52.484;13.572;2023-04-03T05:29:05;7.15;;;1.92;;
37545;SDS011;23389;52.484;13.572;2023-04-03T05:31:30;6.53;;;2.20;;
37545;SDS011;23389;52.484;13.572;2023-04-03T05:33:55;6.88;;;1.80;;
37545;SDS011;23389;52.484;13.572;2023-04-03T05:36:21;10.18;;;2.60;;
37545;SDS011;23389;52.484;13.572;2023-04-03T05:38:46;6.75;;;1.83;;
37545;SDS011;23389;52.484;13.572;2023-04-03T05:41:11;8.10;;;2.10;;
37545;SDS011;23389;52.484;13.572;2023-04-03T05:43:36;7.00;;;1.85;;
37545;SDS011;23389;52.484;13.572;2023-04-03T05:46:03;6.65;;;1.70;;
37545;SDS011;23389;52.484;13.572;2023-04-03T05:48:29;8.68;;;2.72;;
37545;SDS011;23389;52.484;13.572;2023-04-03T05:50:54;7.80;;;2.40;;
37545;SDS011;23389;52.484;13.572;2023-04-03T05:53:25;10.95;;;2.85;;
37545;SDS011;23389;52.484;13.572;2023-04-03T05:55:51;7.30;;;2.55;;
37545;SDS011;23389;52.484;13.572;2023-04-03T05:58:17;10.38;;;2.08;;
37545;SDS011;23389;52.484;13.572;2023-04-03T06:00:42;7.40;;;2.10;;
37545;SDS011;23389;52.484;13.572;2023-04-03T06:03:07;8.25;;;1.70;;
37545;SDS011;23389;52.484;13.572;2023-04-03T06:05:32;8.98;;;2.20;;
37545;SDS011;23389;52.484;13.572;2023-04-03T06:07:57;5.95;;;1.58;;
37545;SDS011;23389;52.484;13.572;2023-04-03T06:10:22;9.57;;;1.90;;
37545;SDS011;23389;52.484;13.572;2023-04-03T06:12:48;7.30;;;2.05;;
37545;SDS011;23389;52.484;13.572;2023-04-03T06:15:13;6.27;;;1.40;;
37545;SDS011;23389;52.484;13.572;2023-04-03T06:17:38;6.50;;;1.67;;
37545;SDS011;23389;52.484;13.572;2023-04-03T06:20:03;6.50;;;1.60;;
37545;SDS011;23389;52.484;13.572;2023-04-03T06:22:29;8.95;;;2.10;;
37545;SDS011;23389;52.484;13.572;2023-04-03T06:24:55;6.25;;;1.30;;
37545;SDS011;23389;52.484;13.572;2023-04-03T06:27:20;8.15;;;1.70;;
37545;SDS011;23389;52.484;13.572;2023-04-03T06:29:45;8.23;;;1.48;;
37545;SDS011;23389;52.484;13.572;2023-04-03T06:32:10;6.70;;;1.50;;
37545;SDS011;23389;52.484;13.572;2023-04-03T06:34:35;5.65;;;1.40;;
37545;SDS011;23389;52.484;13.572;2023-04-03T06:37:00;6.03;;;1.27;;
37545;SDS011;23389;52.484;13.572;2023-04-03T06:39:25;7.65;;;1.23;;
37545;SDS011;23389;52.484;13.572;2023-04-03T06:41:52;6.60;;;1.42;;
37545;SDS011;23389;52.484;13.572;2023-04-03T06:44:17;5.88;;;1.17;;
37545;SDS011;23389;52.484;13.572;2023-04-03T06:46:43;4.45;;;1.30;;
37545;SDS011;23389;52.484;13.572;2023-04-03T06:49:08;5.50;;;1.45;;
37545;SDS011;23389;52.484;13.572;2023-04-03T06:51:34;5.82;;;1.05;;
37545;SDS011;23389;52.484;13.572;2023-04-03T06:54:00;6.70;;;1.25;;
37545;SDS011;23389;52.484;13.572;2023-04-03T06:56:26;7.13;;;1.27;;
37545;SDS011;23389;52.484;13.572;2023-04-03T06:58:51;9.40;;;1.40;;
37545;SDS011;23389;52.484;13.572;2023-04-03T07:01:19;5.80;;;1.17;;
37545;SDS011;23389;52.484;13.572;2023-04-03T07:03:46;5.88;;;1.23;;
37545;SDS011;23389;52.484;13.572;2023-04-03T07:06:12;7.40;;;1.40;;
37545;SDS011;23389;52.484;13.572;2023-04-03T07:08:37;5.07;;;1.20;;
37545;SDS011;23389;52.484;13.572;2023-04-03T07:11:03;7.57;;;1.77;;
37545;SDS011;23389;52.484;13.572;2023-04-03T07:13:28;5.38;;;1.40;;
37545;SDS011;23389;52.484;13.572;2023-04-03T07:15:53;7.00;;;1.25;;
37545;SDS011;23389;52.484;13.572;2023-04-03T07:18:19;4.38;;;1.67;;
37545;SDS011;23389;52.484;13.572;2023-04-03T07:20:44;5.60;;;1.27;;
37545;SDS011;23389;52.484;13.572;2023-04-03T07:23:09;7.28;;;1.10;;
37545;SDS011;23389;52.484;13.572;2023-04-03T07:25:35;6.55;;;1.90;;
37545;SDS011;23389;52.484;13.572;2023-04-03T07:28:00;4.30;;;1.10;;
37545;SDS011;23389;52.484;13.572;2023-04-03T07:30:25;6.53;;;1.27;;
37545;SDS011;23389;52.484;13.572;2023-04-03T07:32:51;6.13;;;1.20;;
37545;SDS011;23389;52.484;13.572;2023-04-03T07:35:16;5.63;;;1.50;;
37545;SDS011;23389;52.484;13.572;2023-04-03T07:37:42;3.58;;;1.05;;
37545;SDS011;23389;52.484;13.572;2023-04-03T07:40:07;5.75;;;1.13;;
37545;SDS011;23389;52.484;13.572;2023-04-03T07:42:33;5.93;;;1.35;;
37545;SDS011;23389;52.484;13.572;2023-04-03T07:44:58;3.83;;;1.10;;
37545;SDS011;23389;52.484;13.572;2023-04-03T07:47:23;4.33;;;1.13;;
37545;SDS011;23389;52.484;13.572;2023-04-03T07:49:48;4.63;;;1.10;;
37545;SDS011;23389;52.484;13.572;2023-04-03T07:52:14;4.80;;;1.00;;
37545;SDS011;23389;52.484;13.572;2023-04-03T07:54:40;3.42;;;0.80;;
37545;SDS011;23389;52.484;13.572;2023-04-03T07:57:05;6.93;;;1.27;;
37545;SDS011;23389;52.484;13.572;2023-04-03T07:59:31;2.60;;;0.80;;
37545;SDS011;23389;52.484;13.572;2023-04-03T08:01:56;8.13;;;1.10;;
37545;SDS011;23389;52.484;13.572;2023-04-03T08:04:21;4.22;;;1.13;;
37545;SDS011;23389;52.484;13.572;2023-04-03T08:06:47;5.72;;;0.95;;
37545;SDS011;23389;52.484;13.572;2023-04-03T08:09:12;4.90;;;1.10;;
37545;SDS011;23389;52.484;13.572;2023-04-03T08:11:39;7.75;;;1.55;;
37545;SDS011;23389;52.484;13.572;2023-04-03T08:14:04;6.38;;;1.40;;
37545;SDS011;23389;52.484;13.572;2023-04-03T08:16:29;6.60;;;1.63;;
37545;SDS011;23389;52.484;13.572;2023-04-03T08:18:54;6.25;;;1.17;;
37545;SDS011;23389;52.484;13.572;2023-04-03T08:21:20;4.32;;;1.30;;
37545;SDS011;23389;52.484;13.572;2023-04-03T08:23:47;8.52;;;1.52;;
37545;SDS011;23389;52.484;13.572;2023-04-03T08:26:14;8.40;;;1.40;;
37545;SDS011;23389;52.484;13.572;2023-04-03T08:28:39;6.15;;;1.08;;
37545;SDS011;23389;52.484;13.572;2023-04-03T08:31:06;5.25;;;1.10;;
37545;SDS011;23389;52.484;13.572;2023-04-03T08:33:31;10.13;;;1.65;;
37545;SDS011;23389;52.484;13.572;2023-04-03T08:35:57;6.13;;;1.92;;
37545;SDS011;23389;52.484;13.572;2023-04-03T08:38:22;2.67;;;0.85;;
37545;SDS011;23389;52.484;13.572;2023-04-03T08:40:47;5.63;;;0.98;;
37545;SDS011;23389;52.484;13.572;2023-04-03T08:45:57;6.07;;;1.83;;
37545;SDS011;23389;52.484;13.572;2023-04-03T08:50:51;7.10;;;1.10;;
37545;SDS011;23389;52.484;13.572;2023-04-03T08:53:21;4.40;;;0.90;;
37545;SDS011;23389;52.484;13.572;2023-04-03T08:55:48;5.10;;;1.25;;
37545;SDS011;23389;52.484;13.572;2023-04-03T08:58:18;4.90;;;1.65;;
37545;SDS011;23389;52.484;13.572;2023-04-03T09:00:45;3.45;;;0.93;;
37545;SDS011;23389;52.484;13.572;2023-04-03T09:03:12;8.23;;;1.48;;
37545;SDS011;23389;52.484;13.572;2023-04-03T09:10:32;3.47;;;0.93;;
37545;SDS011;23389;52.484;13.572;2023-04-03T09:15:30;7.50;;;1.30;;
37545;SDS011;23389;52.484;13.572;2023-04-03T09:26:01;7.10;;;1.15;;
37545;SDS011;23389;52.484;13.572;2023-04-03T09:28:29;3.22;;;0.60;;
37545;SDS011;23389;52.484;13.572;2023-04-03T09:30:55;2.88;;;0.80;;
37545;SDS011;23389;52.484;13.572;2023-04-03T09:33:20;2.85;;;0.60;;
37545;SDS011;23389;52.484;13.572;2023-04-03T09:35:46;5.22;;;0.90;;
37545;SDS011;23389;52.484;13.572;2023-04-03T09:40:39;4.10;;;0.90;;
37545;SDS011;23389;52.484;13.572;2023-04-03T09:45:42;3.10;;;0.90;;
37545;SDS011;23389;52.484;13.572;2023-04-03T09:53:24;4.07;;;1.20;;
37545;SDS011;23389;52.484;13.572;2023-04-03T09:55:50;2.78;;;0.90;;
37545;SDS011;23389;52.484;13.572;2023-04-03T09:58:23;3.55;;;1.02;;
37545;SDS011;23389;52.484;13.572;2023-04-03T10:00:53;3.85;;;1.13;;
37545;SDS011;23389;52.484;13.572;2023-04-03T10:03:27;4.40;;;1.38;;
37545;SDS011;23389;52.484;13.572;2023-04-03T10:05:52;5.07;;;1.30;;
37545;SDS011;23389;52.484;13.572;2023-04-03T10:08:21;4.93;;;1.58;;
37545;SDS011;23389;52.484;13.572;2023-04-03T10:10:49;3.97;;;1.10;;
37545;SDS011;23389;52.484;13.572;2023-04-03T10:13:29;6.47;;;1.20;;
37545;SDS011;23389;52.484;13.572;2023-04-03T10:16:16;5.53;;;1.00;;
37545;SDS011;23389;52.484;13.572;2023-04-03T10:18:48;6.25;;;1.20;;
37545;SDS011;23389;52.484;13.572;2023-04-03T10:24:00;5.15;;;1.17;;
37545;SDS011;23389;52.484;13.572;2023-04-03T10:26:50;4.40;;;1.00;;
37545;SDS011;23389;52.484;13.572;2023-04-03T10:29:29;3.47;;;0.82;;
37545;SDS011;23389;52.484;13.572;2023-04-03T10:31:59;3.40;;;1.10;;
37545;SDS011;23389;52.484;13.572;2023-04-03T10:34:31;4.07;;;1.20;;
37545;SDS011;23389;52.484;13.572;2023-04-03T10:37:01;5.97;;;1.52;;
37545;SDS011;23389;52.484;13.572;2023-04-03T10:39:33;6.82;;;1.88;;
37545;SDS011;23389;52.484;13.572;2023-04-03T10:44:52;3.25;;;1.17;;
37545;SDS011;23389;52.484;13.572;2023-04-03T10:50:21;6.00;;;1.30;;
37545;SDS011;23389;52.484;13.572;2023-04-03T10:52:51;5.03;;;1.05;;
37545;SDS011;23389;52.484;13.572;2023-04-03T10:57:45;4.60;;;0.88;;
37545;SDS011;23389;52.484;13.572;2023-04-03T11:02:56;3.00;;;0.82;;
37545;SDS011;23389;52.484;13.572;2023-04-03T11:07:54;4.25;;;1.27;;
37545;SDS011;23389;52.484;13.572;2023-04-03T11:10:23;4.00;;;1.15;;
37545;SDS011;23389;52.484;13.572;2023-04-03T11:12:54;3.38;;;1.23;;
37545;SDS011;23389;52.484;13.572;2023-04-03T11:15:22;4.65;;;1.27;;
37545;SDS011;23389;52.484;13.572;2023-04-03T11:17:54;5.60;;;1.15;;
37545;SDS011;23389;52.484;13.572;2023-04-03T11:20:25;4.20;;;1.20;;
37545;SDS011;23389;52.484;13.572;2023-04-03T11:23:39;4.70;;;1.10;;
37545;SDS011;23389;52.484;13.572;2023-04-03T11:25:37;6.13;;;1.73;;
37545;SDS011;23389;52.484;13.572;2023-04-03T11:28:04;5.43;;;1.20;;
37545;SDS011;23389;52.484;13.572;2023-04-03T11:30:34;6.50;;;1.23;;
37545;SDS011;23389;52.484;13.572;2023-04-03T11:35:34;7.43;;;1.42;;
37545;SDS011;23389;52.484;13.572;2023-04-03T11:38:00;4.72;;;1.13;;
37545;SDS011;23389;52.484;13.572;2023-04-03T11:40:28;5.10;;;1.58;;
37545;SDS011;23389;52.484;13.572;2023-04-03T11:42:55;3.95;;;1.30;;
37545;SDS011;23389;52.484;13.572;2023-04-03T11:45:30;8.25;;;2.13;;
37545;SDS011;23389;52.484;13.572;2023-04-03T11:47:57;4.90;;;1.20;;
37545;SDS011;23389;52.484;13.572;2023-04-03T11:53:25;3.70;;;1.00;;
37545;SDS011;23389;52.484;13.572;2023-04-03T11:58:15;4.47;;;1.10;;
37545;SDS011;23389;52.484;13.572;2023-04-03T12:05:51;4.57;;;1.33;;
37545;SDS011;23389;52.484;13.572;2023-04-03T12:08:27;5.07;;;1.38;;
37545;SDS011;23389;52.484;13.572;2023-04-03T12:16:04;3.75;;;1.17;;
37545;SDS011;23389;52.484;13.572;2023-04-03T12:18:43;4.55;;;1.38;;
37545;SDS011;23389;52.484;13.572;2023-04-03T12:21:09;9.52;;;3.03;;
37545;SDS011;23389;52.484;13.572;2023-04-03T12:23:35;3.50;;;0.90;;
37545;SDS011;23389;52.484;13.572;2023-04-03T12:28:29;4.82;;;1.00;;
37545;SDS011;23389;52.484;13.572;2023-04-03T12:30:55;3.17;;;1.00;;
37545;SDS011;23389;52.484;13.572;2023-04-03T12:34:04;3.63;;;1.05;;
37545;SDS011;23389;52.484;13.572;2023-04-03T12:36:11;4.45;;;1.15;;
37545;SDS011;23389;52.484;13.572;2023-04-03T12:39:01;2.42;;;0.90;;
37545;SDS011;23389;52.484;13.572;2023-04-03T12:41:38;2.83;;;0.73;;
37545;SDS011;23389;52.484;13.572;2023-04-03T12:44:16;4.00;;;0.90;;
37545;SDS011;23389;52.484;13.572;2023-04-03T12:46:45;4.70;;;1.08;;
37545;SDS011;23389;52.484;13.572;2023-04-03T12:49:14;3.85;;;1.20;;
37545;SDS011;23389;52.484;13.572;2023-04-03T12:51:44;5.25;;;1.00;;
37545;SDS011;23389;52.484;13.572;2023-04-03T12:54:15;3.20;;;0.95;;
37545;SDS011;23389;52.484;13.572;2023-04-03T12:56:41;3.83;;;1.23;;
37545;SDS011;23389;52.484;13.572;2023-04-03T12:59:20;4.10;;;1.00;;
37545;SDS011;23389;52.484;13.572;2023-04-03T13:01:58;4.68;;;1.90;;
37545;SDS011;23389;52.484;13.572;2023-04-03T13:04:24;3.38;;;1.10;;
37545;SDS011;23389;52.484;13.572;2023-04-03T13:06:49;5.65;;;1.30;;
37545;SDS011;23389;52.484;13.572;2023-04-03T13:09:18;5.65;;;1.20;;
37545;SDS011;23389;52.484;13.572;2023-04-03T13:11:43;4.20;;;1.48;;
37545;SDS011;23389;52.484;13.572;2023-04-03T13:14:20;4.50;;;1.40;;
37545;SDS011;23389;52.484;13.572;2023-04-03T13:16:53;4.18;;;1.10;;
37545;SDS011;23389;52.484;13.572;2023-04-03T13:19:18;3.53;;;0.90;;
37545;SDS011;23389;52.484;13.572;2023-04-03T13:21:43;3.47;;;1.20;;
37545;SDS011;23389;52.484;13.572;2023-04-03T13:24:09;5.05;;;1.40;;
37545;SDS011;23389;52.484;13.572;2023-04-03T13:26:34;3.22;;;1.30;;
37545;SDS011;23389;52.484;13.572;2023-04-03T13:29:01;2.55;;;1.05;;
37545;SDS011;23389;52.484;13.572;2023-04-03T13:31:29;4.40;;;1.23;;
37545;SDS011;23389;52.484;13.572;2023-04-03T13:34:12;4.40;;;1.05;;
37545;SDS011;23389;52.484;13.572;2023-04-03T13:36:43;3.97;;;1.35;;
37545;SDS011;23389;52.484;13.572;2023-04-03T13:41:38;3.28;;;1.27;;
37545;SDS011;23389;52.484;13.572;2023-04-03T13:49:28;6.13;;;1.73;;
37545;SDS011;23389;52.484;13.572;2023-04-03T13:51:54;3.60;;;0.95;;
37545;SDS011;23389;52.484;13.572;2023-04-03T13:54:21;5.05;;;1.33;;
37545;SDS011;23389;52.484;13.572;2023-04-03T13:56:47;4.20;;;1.25;;
37545;SDS011;23389;52.484;13.572;2023-04-03T14:01:46;5.82;;;1.10;;
37545;SDS011;23389;52.484;13.572;2023-04-03T14:06:42;4.90;;;1.17;;
37545;SDS011;23389;52.484;13.572;2023-04-03T14:09:07;10.50;;;2.13;;
37545;SDS011;23389;52.484;13.572;2023-04-03T14:11:32;7.15;;;1.25;;
37545;SDS011;23389;52.484;13.572;2023-04-03T14:14:00;4.60;;;1.30;;
37545;SDS011;23389;52.484;13.572;2023-04-03T14:16:27;9.95;;;1.45;;
37545;SDS011;23389;52.484;13.572;2023-04-03T14:18:54;5.15;;;1.40;;
37545;SDS011;23389;52.484;13.572;2023-04-03T14:21:19;4.78;;;1.13;;
37545;SDS011;23389;52.484;13.572;2023-04-03T14:23:45;4.32;;;1.30;;
37545;SDS011;23389;52.484;13.572;2023-04-03T14:26:14;3.80;;;1.00;;
37545;SDS011;23389;52.484;13.572;2023-04-03T14:28:41;3.13;;;0.90;;
37545;SDS011;23389;52.484;13.572;2023-04-03T14:31:06;4.82;;;1.00;;
37545;SDS011;23389;52.484;13.572;2023-04-03T14:33:32;4.50;;;1.48;;
37545;SDS011;23389;52.484;13.572;2023-04-03T14:35:59;4.00;;;1.20;;
37545;SDS011;23389;52.484;13.572;2023-04-03T14:38:26;3.95;;;1.10;;
37545;SDS011;23389;52.484;13.572;2023-04-03T14:40:52;5.22;;;1.25;;
37545;SDS011;23389;52.484;13.572;2023-04-03T14:43:17;6.90;;;1.30;;
37545;SDS011;23389;52.484;13.572;2023-04-03T14:45:43;3.92;;;1.10;;
37545;SDS011;23389;52.484;13.572;2023-04-03T14:48:22;6.18;;;1.45;;
37545;SDS011;23389;52.484;13.572;2023-04-03T14:50:48;4.38;;;1.30;;
37545;SDS011;23389;52.484;13.572;2023-04-03T14:53:14;4.93;;;1.10;;
37545;SDS011;23389;52.484;13.572;2023-04-03T14:55:40;6.47;;;2.20;;
37545;SDS011;23389;52.484;13.572;2023-04-03T14:58:05;4.72;;;1.50;;
37545;SDS011;23389;52.484;13.572;2023-04-03T15:00:30;3.67;;;1.20;;
37545;SDS011;23389;52.484;13.572;2023-04-03T15:02:56;7.87;;;1.50;;
37545;SDS011;23389;52.484;13.572;2023-04-03T15:05:21;5.60;;;1.45;;
37545;SDS011;23389;52.484;13.572;2023-04-03T15:10:25;5.13;;;1.45;;
37545;SDS011;23389;52.484;13.572;2023-04-03T15:12:50;4.88;;;0.93;;
37545;SDS011;23389;52.484;13.572;2023-04-03T15:15:17;3.40;;;1.10;;
37545;SDS011;23389;52.484;13.572;2023-04-03T15:17:42;4.82;;;1.40;;
37545;SDS011;23389;52.484;13.572;2023-04-03T15:20:12;5.70;;;1.00;;
37545;SDS011;23389;52.484;13.572;2023-04-03T15:22:37;3.13;;;0.90;;
37545;SDS011;23389;52.484;13.572;2023-04-03T15:25:03;5.60;;;1.00;;
37545;SDS011;23389;52.484;13.572;2023-04-03T15:27:28;4.78;;;1.05;;
37545;SDS011;23389;52.484;13.572;2023-04-03T15:29:53;5.97;;;1.00;;
37545;SDS011;23389;52.484;13.572;2023-04-03T15:32:18;3.50;;;1.10;;
37545;SDS011;23389;52.484;13.572;2023-04-03T15:34:44;4.70;;;1.30;;
37545;SDS011;23389;52.484;13.572;2023-04-03T15:37:09;4.20;;;1.10;;
37545;SDS011;23389;52.484;13.572;2023-04-03T15:39:34;4.50;;;1.10;;
37545;SDS011;23389;52.484;13.572;2023-04-03T15:42:00;5.20;;;1.00;;
37545;SDS011;23389;52.484;13.572;2023-04-03T15:44:30;5.72;;;1.40;;
37545;SDS011;23389;52.484;13.572;2023-04-03T15:46:56;4.30;;;1.30;;
37545;SDS011;23389;52.484;13.572;2023-04-03T15:49:21;5.70;;;1.35;;
37545;SDS011;23389;52.484;13.572;2023-04-03T15:51:46;3.38;;;0.90;;
37545;SDS011;23389;52.484;13.572;2023-04-03T15:54:11;3.93;;;1.00;;
37545;SDS011;23389;52.484;13.572;2023-04-03T15:56:37;6.13;;;1.95;;
37545;SDS011;23389;52.484;13.572;2023-04-03T15:59:02;5.10;;;1.08;;
37545;SDS011;23389;52.484;13.572;2023-04-03T16:01:27;3.10;;;1.00;;